Time;durP1;ratioP1;P1;durP2;ratioP2;P2;SDS_P1;SDS_P2;PMS_P1;PMS_P2;Temp;Humidity;BMP_temperature;BMP_pressure;BME280_temperature;BME280_humidity;BME280_pressure;Samples;Min_cycle;Max_cycle;Signal;HPM_P1;HPM_P2
2022/05/18 00:00:09;;;;;;;3.80;3.60;;;19.50;99.90;;;;;;5030842;28;20210;-66
2022/05/18 00:02:36;;;;;;;5.00;4.40;;;19.50;99.90;;;;;;5029854;28;20168;-66
2022/05/18 00:05:03;;;;;;;4.50;4.30;;;19.40;99.90;;;;;;5030234;28;20175;-66
2022/05/18 00:07:28;;;;;;;4.10;3.90;;;19.40;99.90;;;;;;5031049;28;20203;-66
2022/05/18 00:09:54;;;;;;;4.17;3.97;;;19.30;99.90;;;;;;5031007;28;20207;-66
2022/05/18 00:12:20;;;;;;;4.03;3.83;;;19.30;99.90;;;;;;5032745;28;20175;-66
2022/05/18 00:14:45;;;;;;;4.27;3.97;;;19.30;99.90;;;;;;5034464;28;20198;-66
2022/05/18 00:17:11;;;;;;;4.17;3.97;;;19.20;99.90;;;;;;5034397;28;20508;-66
2022/05/18 00:19:37;;;;;;;3.77;3.57;;;19.20;99.90;;;;;;5033348;28;20203;-66
2022/05/18 00:22:03;;;;;;;4.30;3.93;;;19.20;99.90;;;;;;5034381;28;20171;-67
2022/05/18 00:24:29;;;;;;;4.30;4.00;;;19.20;99.90;;;;;;5034323;28;20203;-66
2022/05/18 00:26:55;;;;;;;3.90;3.70;;;19.20;99.90;;;;;;5034604;28;20179;-66
2022/05/18 00:29:20;;;;;;;3.97;3.67;;;19.10;99.90;;;;;;5034289;28;20174;-67
2022/05/18 00:31:46;;;;;;;4.10;3.90;;;19.10;99.90;;;;;;5034525;28;20176;-66
2022/05/18 00:34:13;;;;;;;4.07;3.87;;;19.00;99.90;;;;;;5034270;28;20233;-66
2022/05/18 00:36:39;;;;;;;4.53;4.23;;;19.00;99.90;;;;;;5033755;28;20180;-66
2022/05/18 00:39:05;;;;;;;3.90;3.70;;;19.00;99.90;;;;;;5034307;28;20250;-66
2022/05/18 00:41:32;;;;;;;4.37;4.17;;;19.00;99.90;;;;;;5033878;28;20294;-66
2022/05/18 00:43:57;;;;;;;4.17;3.97;;;18.80;99.90;;;;;;5033028;28;20214;-66
2022/05/18 00:46:23;;;;;;;4.67;4.10;;;18.80;99.90;;;;;;5033777;28;20175;-66
2022/05/18 00:48:50;;;;;;;4.20;4.00;;;18.70;99.90;;;;;;5034143;28;20171;-66
2022/05/18 00:51:27;;;;;;;4.23;4.03;;;18.60;99.90;;;;;;5033673;28;20558;-66
2022/05/18 00:54:21;;;;;;;4.97;4.67;;;18.60;99.90;;;;;;5034280;28;20249;-66
2022/05/18 00:56:56;;;;;;;5.00;4.80;;;18.40;99.90;;;;;;5033478;28;20183;-66
2022/05/18 00:59:31;;;;;;;5.17;4.87;;;18.40;99.90;;;;;;5033768;28;20543;-66
2022/05/18 01:02:01;;;;;;;4.50;4.30;;;18.30;99.90;;;;;;5033560;28;20226;-67
2022/05/18 01:04:27;;;;;;;4.20;4.00;;;18.30;99.90;;;;;;5033857;28;20722;-67
2022/05/18 01:07:02;;;;;;;5.43;5.17;;;18.20;99.90;;;;;;5033461;28;20176;-67
2022/05/18 01:09:38;;;;;;;4.80;4.60;;;18.10;99.90;;;;;;5033676;28;20175;-67
2022/05/18 01:12:06;;;;;;;5.30;5.10;;;18.10;99.90;;;;;;5033505;28;20175;-67
2022/05/18 01:14:39;;;;;;;4.60;4.40;;;18.10;99.90;;;;;;5033415;28;20183;-67
2022/05/18 01:17:05;;;;;;;4.87;4.67;;;18.10;99.90;;;;;;5033505;28;20167;-68
2022/05/18 01:19:45;;;;;;;4.57;4.37;;;18.00;99.90;;;;;;5033393;28;20167;-68
2022/05/18 01:22:44;;;;;;;4.70;4.40;;;18.00;99.90;;;;;;5032972;28;20183;-68
2022/05/18 01:25:46;;;;;;;4.53;4.33;;;18.00;99.90;;;;;;5049504;28;20183;-67
2022/05/18 01:28:12;;;;;;;4.20;4.00;;;18.00;99.90;;;;;;5041141;28;20183;-67
2022/05/18 01:30:46;;;;;;;4.70;4.50;;;17.90;99.90;;;;;;5033461;28;20174;-68
2022/05/18 01:33:13;;;;;;;4.40;4.20;;;17.90;99.90;;;;;;5032764;28;20199;-68
2022/05/18 01:35:41;;;;;;;4.87;4.67;;;17.90;99.90;;;;;;5032763;28;20183;-67
2022/05/18 01:38:12;;;;;;;4.93;4.63;;;17.90;99.90;;;;;;5033129;28;20190;-67
2022/05/18 01:40:40;;;;;;;4.97;4.67;;;17.90;99.90;;;;;;5033116;28;20218;-67
2022/05/18 01:43:17;;;;;;;4.47;4.27;;;17.80;99.90;;;;;;5013061;28;20696;-67
2022/05/18 01:45:43;;;;;;;5.30;5.00;;;17.80;99.90;;;;;;5013067;28;20176;-66
2022/05/18 01:48:14;;;;;;;5.20;4.90;;;17.80;99.90;;;;;;5032730;28;20186;-66
2022/05/18 01:50:41;;;;;;;5.40;5.00;;;17.80;99.90;;;;;;5033013;28;20636;-68
2022/05/18 01:53:08;;;;;;;5.07;4.87;;;17.70;99.90;;;;;;5031327;28;20203;-66
2022/05/18 01:55:34;;;;;;;4.70;4.50;;;17.70;99.90;;;;;;5032501;28;20163;-67
2022/05/18 01:58:01;;;;;;;5.33;5.00;;;17.70;99.90;;;;;;5032589;28;20653;-68
2022/05/18 02:00:27;;;;;;;5.30;5.03;;;17.60;99.90;;;;;;5032637;28;20429;-67
2022/05/18 02:02:53;;;;;;;4.43;4.23;;;17.60;99.90;;;;;;5032699;28;20676;-67
2022/05/18 02:05:19;;;;;;;4.53;4.33;;;17.60;99.90;;;;;;5032176;28;20171;-66
2022/05/18 02:07:44;;;;;;;5.53;5.13;;;17.50;99.90;;;;;;5032441;28;20628;-68
2022/05/18 02:10:11;;;;;;;5.60;5.40;;;17.50;99.90;;;;;;5032533;28;20262;-67
2022/05/18 02:12:36;;;;;;;5.37;5.07;;;17.50;99.90;;;;;;5032378;28;20278;-67
2022/05/18 02:15:03;;;;;;;5.80;5.50;;;17.50;99.90;;;;;;5032410;28;20182;-67
2022/05/18 02:17:30;;;;;;;5.97;5.67;;;17.50;99.90;;;;;;5030761;28;20226;-67
2022/05/18 02:19:57;;;;;;;6.07;5.77;;;17.50;99.90;;;;;;5032350;28;20192;-67
2022/05/18 02:22:23;;;;;;;6.30;5.93;;;17.50;99.90;;;;;;5032183;28;20253;-67
2022/05/18 02:24:49;;;;;;;5.40;5.10;;;17.50;99.90;;;;;;5032047;28;20191;-67
2022/05/18 02:27:15;;;;;;;5.10;4.90;;;17.50;99.90;;;;;;5031503;28;20171;-67
2022/05/18 02:29:40;;;;;;;5.10;4.80;;;17.50;99.90;;;;;;5032183;28;20542;-68
2022/05/18 02:32:06;;;;;;;4.50;4.30;;;17.50;99.90;;;;;;5031997;28;20183;-67
2022/05/18 02:34:32;;;;;;;5.27;4.97;;;17.50;99.90;;;;;;5031370;28;20264;-67
2022/05/18 02:36:58;;;;;;;4.80;4.60;;;17.50;99.90;;;;;;5031771;28;20218;-67
2022/05/18 02:39:23;;;;;;;5.23;4.97;;;17.40;99.90;;;;;;5032015;28;20223;-67
2022/05/18 02:41:49;;;;;;;5.40;5.10;;;17.40;99.90;;;;;;5031759;28;20175;-67
2022/05/18 02:44:17;;;;;;;5.07;4.77;;;17.40;99.90;;;;;;5031805;28;20218;-66
2022/05/18 02:46:42;;;;;;;5.97;5.67;;;17.40;99.90;;;;;;5031584;28;20163;-67
2022/05/18 02:49:08;;;;;;;4.70;4.40;;;17.40;99.90;;;;;;5031539;28;20225;-66
2022/05/18 02:51:33;;;;;;;6.93;6.63;;;17.30;99.90;;;;;;5031660;28;20183;-67
2022/05/18 02:53:59;;;;;;;5.57;5.37;;;17.30;99.90;;;;;;5031481;28;20200;-67
2022/05/18 02:56:26;;;;;;;4.87;4.67;;;17.30;99.90;;;;;;5031624;28;20203;-66
2022/05/18 02:58:55;;;;;;;5.00;4.80;;;17.30;99.90;;;;;;5031550;28;20188;-67
2022/05/18 03:01:27;;;;;;;6.37;6.07;;;17.30;99.90;;;;;;5031508;28;20203;-67
2022/05/18 03:03:54;;;;;;;5.60;5.30;;;17.20;99.90;;;;;;5031447;28;20223;-66
2022/05/18 03:06:22;;;;;;;5.63;5.33;;;17.20;99.90;;;;;;5031648;28;20170;-67
2022/05/18 03:08:48;;;;;;;6.40;6.00;;;17.20;99.90;;;;;;5031500;28;20190;-67
2022/05/18 03:11:15;;;;;;;6.20;5.87;;;17.20;99.90;;;;;;5031568;28;20262;-67
2022/05/18 03:13:41;;;;;;;6.20;5.90;;;17.20;99.90;;;;;;5031082;28;20207;-67
2022/05/18 03:16:07;;;;;;;6.13;5.77;;;17.10;99.90;;;;;;5031225;28;20263;-67
2022/05/18 03:18:33;;;;;;;6.03;5.73;;;17.10;99.90;;;;;;5031266;28;20211;-65
2022/05/18 03:23:44;;;;;;;5.47;5.17;;;17.10;99.90;;;;;;5031634;28;20703;-66
2022/05/18 03:26:12;;;;;;;5.47;5.17;;;17.10;99.90;;;;;;5031229;28;20171;-66
2022/05/18 03:28:40;;;;;;;5.47;5.17;;;17.10;99.90;;;;;;5031213;28;20192;-67
2022/05/18 03:31:07;;;;;;;6.23;5.93;;;17.10;99.90;;;;;;5031185;28;20256;-67
2022/05/18 03:33:33;;;;;;;5.30;5.00;;;17.10;99.90;;;;;;5030831;28;20213;-67
2022/05/18 03:35:59;;;;;;;5.33;4.90;;;17.10;99.90;;;;;;5031051;28;20668;-66
2022/05/18 03:38:25;;;;;;;5.00;4.70;;;17.20;99.90;;;;;;5031578;28;20171;-66
2022/05/18 03:40:51;;;;;;;5.03;4.70;;;17.20;99.90;;;;;;5029783;28;20203;-67
2022/05/18 03:43:18;;;;;;;5.10;4.90;;;17.20;99.90;;;;;;5031308;28;20582;-66
2022/05/18 03:45:44;;;;;;;6.00;5.60;;;17.20;99.90;;;;;;5031000;28;20653;-66
2022/05/18 03:48:13;;;;;;;5.63;5.33;;;17.20;99.90;;;;;;5034493;28;20226;-66
2022/05/18 03:50:42;;;;;;;5.50;5.10;;;17.20;99.90;;;;;;5035280;28;20175;-66
2022/05/18 03:53:08;;;;;;;5.03;4.73;;;17.10;99.90;;;;;;5034812;28;20261;-66
2022/05/18 03:55:34;;;;;;;5.57;5.13;;;17.10;99.90;;;;;;5035040;28;20167;-65
2022/05/18 03:58:00;;;;;;;5.13;4.83;;;17.20;99.90;;;;;;5034812;28;20171;-67
2022/05/18 04:00:26;;;;;;;5.90;5.60;;;17.20;99.90;;;;;;5035083;28;20221;-66
2022/05/18 04:02:51;;;;;;;5.33;5.03;;;17.20;99.90;;;;;;5034735;28;20191;-66
2022/05/18 04:05:20;;;;;;;4.83;4.63;;;17.20;99.90;;;;;;5034536;28;20206;-65
2022/05/18 04:07:46;;;;;;;5.00;4.80;;;17.20;99.90;;;;;;5034736;28;20637;-66
2022/05/18 04:10:12;;;;;;;6.10;5.80;;;17.20;99.90;;;;;;5034899;28;20258;-66
2022/05/18 04:12:38;;;;;;;5.93;5.63;;;17.20;99.90;;;;;;5033345;28;20180;-65
2022/05/18 04:15:04;;;;;;;5.43;5.23;;;17.20;99.90;;;;;;5034566;28;20186;-66
2022/05/18 04:17:30;;;;;;;6.00;5.70;;;17.30;99.90;;;;;;5034496;28;20237;-67
2022/05/18 04:19:56;;;;;;;6.50;6.20;;;17.30;99.90;;;;;;5034569;28;20207;-65
2022/05/18 04:22:23;;;;;;;5.83;5.53;;;17.30;99.90;;;;;;5034429;28;20194;-67
2022/05/18 04:24:49;;;;;;;6.43;6.13;;;17.40;99.90;;;;;;5033085;28;20569;-66
2022/05/18 04:27:15;;;;;;;5.43;5.03;;;17.40;99.90;;;;;;5034103;28;20176;-67
2022/05/18 04:29:41;;;;;;;5.83;5.33;;;17.50;99.90;;;;;;5034460;28;20170;-67
2022/05/18 04:32:07;;;;;;;5.30;5.10;;;17.60;99.90;;;;;;5034191;28;20259;-67
2022/05/18 04:34:33;;;;;;;5.33;5.03;;;17.60;99.90;;;;;;5034267;28;20194;-67
2022/05/18 04:36:58;;;;;;;5.90;5.60;;;17.70;99.90;;;;;;5034031;28;20175;-66
2022/05/18 04:39:24;;;;;;;5.37;5.07;;;17.80;99.90;;;;;;5033088;28;20258;-66
2022/05/18 04:41:50;;;;;;;4.60;4.40;;;17.90;99.90;;;;;;5032669;28;20573;-66
2022/05/18 04:44:16;;;;;;;5.60;4.97;;;18.00;99.90;;;;;;5034051;28;20211;-66
2022/05/18 04:46:41;;;;;;;4.50;4.30;;;18.20;99.90;;;;;;5033475;28;20175;-66
2022/05/18 04:49:09;;;;;;;5.63;5.23;;;18.40;99.90;;;;;;5034221;28;20163;-67
2022/05/18 04:51:35;;;;;;;4.73;4.53;;;18.50;99.90;;;;;;5033958;28;20637;-66
2022/05/18 04:54:01;;;;;;;4.67;4.47;;;18.60;99.90;;;;;;5033904;28;20197;-66
2022/05/18 04:56:26;;;;;;;4.63;4.43;;;18.60;99.90;;;;;;5033559;28;20176;-66
2022/05/18 04:58:53;;;;;;;4.43;4.23;;;18.60;99.90;;;;;;5032153;28;20179;-66
2022/05/18 05:01:18;;;;;;;4.73;4.43;;;18.60;99.90;;;;;;5032429;28;20209;-65
2022/05/18 05:03:44;;;;;;;4.60;4.40;;;18.60;99.90;;;;;;5033747;28;20241;-65
2022/05/18 05:06:10;;;;;;;5.30;5.00;;;18.50;99.90;;;;;;5032298;28;20229;-66
2022/05/18 05:08:37;;;;;;;4.90;4.70;;;18.50;99.90;;;;;;5033562;28;20176;-67
2022/05/18 05:11:04;;;;;;;4.70;4.40;;;18.60;99.90;;;;;;5033747;28;20547;-65
2022/05/18 05:13:30;;;;;;;4.97;4.67;;;18.70;99.90;;;;;;5033384;28;20253;-66
2022/05/18 05:16:07;;;;;;;4.47;4.17;;;18.80;99.90;;;;;;5032051;28;20171;-66
2022/05/18 05:18:33;;;;;;;5.43;5.13;;;18.90;99.90;;;;;;5033360;28;20555;-66
2022/05/18 05:20:59;;;;;;;5.33;4.93;;;19.10;99.90;;;;;;5033642;28;20206;-66
2022/05/18 05:23:26;;;;;;;4.80;4.50;;;19.10;99.90;;;;;;5033005;28;20685;-67
2022/05/18 05:25:52;;;;;;;5.13;4.83;;;19.20;99.90;;;;;;5032939;28;20175;-66
2022/05/18 05:28:19;;;;;;;5.17;4.87;;;19.20;99.90;;;;;;5031494;28;20171;-66
2022/05/18 05:30:44;;;;;;;5.37;5.07;;;19.20;99.90;;;;;;5033551;28;20648;-67
2022/05/18 05:33:11;;;;;;;5.83;5.33;;;19.40;99.90;;;;;;5033273;28;20203;-65
2022/05/18 05:35:41;;;;;;;5.73;5.43;;;19.60;99.90;;;;;;5033272;28;20175;-66
2022/05/18 05:38:11;;;;;;;5.03;4.73;;;19.80;99.90;;;;;;5033448;28;20223;-67
2022/05/18 05:40:37;;;;;;;5.00;4.70;;;20.10;99.90;;;;;;5031624;28;20211;-66
2022/05/18 05:43:07;;;;;;;4.73;4.43;;;20.50;99.90;;;;;;5032702;28;20212;-67
2022/05/18 05:45:33;;;;;;;4.67;4.43;;;20.80;99.90;;;;;;5032731;28;20186;-66
2022/05/18 05:47:59;;;;;;;4.78;4.47;;;21.20;99.90;;;;;;5032605;28;20175;-66
2022/05/18 05:50:26;;;;;;;5.18;4.78;;;21.50;99.90;;;;;;5032946;28;20172;-66
2022/05/18 05:52:51;;;;;;;4.13;3.92;;;21.80;99.90;;;;;;5032575;28;20691;-67
2022/05/18 05:55:17;;;;;;;3.80;3.60;;;22.10;99.90;;;;;;5031784;28;20179;-66
2022/05/18 05:57:43;;;;;;;3.75;3.55;;;22.40;99.90;;;;;;5032663;28;20179;-67
2022/05/18 06:00:09;;;;;;;4.70;3.60;;;22.60;99.90;;;;;;5031728;28;20200;-66
2022/05/18 06:02:34;;;;;;;4.07;3.78;;;22.70;99.90;;;;;;5032740;28;20178;-66
2022/05/18 06:05:03;;;;;;;5.03;3.58;;;22.80;99.90;;;;;;5031842;28;20172;-67
2022/05/18 06:07:30;;;;;;;3.83;3.63;;;22.90;99.90;;;;;;5031829;28;20262;-66
2022/05/18 06:09:55;;;;;;;4.75;4.45;;;23.00;99.90;;;;;;5031369;28;20352;-67
2022/05/18 06:12:23;;;;;;;3.97;3.78;;;23.20;99.90;;;;;;5032681;28;20623;-69
2022/05/18 06:14:49;;;;;;;4.32;4.03;;;23.40;99.90;;;;;;5012673;28;20188;-69
2022/05/18 06:17:15;;;;;;;3.92;3.63;;;23.60;99.90;;;;;;5012952;28;20178;-66
2022/05/18 06:19:40;;;;;;;5.05;4.75;;;23.80;99.90;;;;;;5032555;28;20641;-66
2022/05/18 06:22:06;;;;;;;4.10;3.90;;;24.00;99.90;;;;;;5031376;28;20627;-67
2022/05/18 06:24:32;;;;;;;4.20;4.00;;;24.10;99.90;;;;;;5031840;28;20199;-67
2022/05/18 06:26:58;;;;;;;3.88;3.67;;;24.20;99.90;;;;;;5031966;28;20231;-66
2022/05/18 06:29:25;;;;;;;4.40;4.20;;;24.30;99.90;;;;;;5031424;28;20532;-66
2022/05/18 06:31:51;;;;;;;5.35;5.05;;;24.30;99.90;;;;;;5032290;28;20179;-67
2022/05/18 06:34:16;;;;;;;4.18;3.88;;;24.40;99.90;;;;;;5030427;28;20258;-67
2022/05/18 06:36:42;;;;;;;3.97;3.78;;;24.60;99.90;;;;;;5031669;28;20207;-68
2022/05/18 06:39:08;;;;;;;4.90;4.50;;;24.80;99.90;;;;;;5032145;28;20176;-66
2022/05/18 06:41:35;;;;;;;4.32;4.13;;;25.00;99.90;;;;;;5029960;28;20226;-66
2022/05/18 06:44:04;;;;;;;4.18;3.97;;;25.10;99.90;;;;;;5031572;28;20716;-67
2022/05/18 06:46:32;;;;;;;3.92;3.72;;;25.40;99.90;;;;;;5031503;28;20174;-67
2022/05/18 06:48:58;;;;;;;3.88;3.58;;;25.60;99.90;;;;;;5031133;28;20588;-67
2022/05/18 06:51:27;;;;;;;3.92;3.72;;;25.80;99.90;;;;;;5031717;28;20190;-67
2022/05/18 06:53:53;;;;;;;5.03;3.13;;;26.00;99.90;;;;;;5030236;28;20206;-68
2022/05/18 06:56:21;;;;;;;3.30;3.10;;;26.40;99.90;;;;;;5030962;28;20187;-67
2022/05/18 06:58:48;;;;;;;3.40;3.20;;;26.70;99.90;;;;;;5031674;28;20248;-67
2022/05/18 07:01:14;;;;;;;3.33;3.13;;;26.90;99.90;;;;;;5030851;28;20199;-67
2022/05/18 07:03:40;;;;;;;3.28;3.00;;;27.10;99.90;;;;;;5031535;28;20648;-67
2022/05/18 07:06:06;;;;;;;3.47;3.28;;;27.10;99.90;;;;;;5031100;28;20179;-67
2022/05/18 07:08:32;;;;;;;3.83;3.53;;;27.10;99.90;;;;;;5031645;28;20218;-67
2022/05/18 07:10:57;;;;;;;3.38;3.17;;;27.20;99.90;;;;;;5031319;28;20541;-66
2022/05/18 07:13:23;;;;;;;3.45;3.25;;;27.40;99.90;;;;;;5031352;28;20195;-67
2022/05/18 07:15:49;;;;;;;3.30;3.10;;;27.40;99.90;;;;;;5030755;28;20183;-67
2022/05/18 07:18:15;;;;;;;3.20;3.00;;;27.30;99.90;;;;;;5031404;28;20194;-66
2022/05/18 07:20:41;;;;;;;3.03;2.83;;;27.50;99.90;;;;;;5031141;28;20212;-66
2022/05/18 07:23:07;;;;;;;3.40;3.17;;;27.60;99.90;;;;;;5026905;28;20192;-66
2022/05/18 07:25:33;;;;;;;3.47;3.10;;;27.90;99.90;;;;;;5030940;28;20163;-67
2022/05/18 07:27:59;;;;;;;3.15;2.95;;;28.20;99.90;;;;;;5030927;28;20175;-66
2022/05/18 07:30:25;;;;;;;3.08;2.95;;;28.50;99.90;;;;;;5031326;28;20174;-67
2022/05/18 07:32:50;;;;;;;2.90;2.80;;;28.70;99.90;;;;;;5030956;28;20199;-67
2022/05/18 07:35:16;;;;;;;3.10;2.90;;;28.50;99.90;;;;;;5030976;28;20222;-67
2022/05/18 07:37:41;;;;;;;2.85;2.75;;;28.60;99.90;;;;;;5030882;28;20237;-67
2022/05/18 07:40:08;;;;;;;3.25;3.05;;;28.70;99.90;;;;;;5031230;28;20202;-67
2022/05/18 07:42:34;;;;;;;3.33;3.13;;;28.60;99.90;;;;;;5030979;28;20171;-67
2022/05/18 07:45:00;;;;;;;3.58;3.38;;;28.70;99.90;;;;;;5031036;28;20578;-67
2022/05/18 07:47:30;;;;;;;3.40;3.05;;;28.80;99.90;;;;;;5029928;28;20233;-67
2022/05/18 07:49:56;;;;;;;3.15;2.95;;;29.10;99.90;;;;;;5016635;28;20180;-67
2022/05/18 07:52:22;;;;;;;2.70;2.60;;;29.50;99.90;;;;;;5011195;28;20261;-67
2022/05/18 07:54:47;;;;;;;3.97;3.00;;;29.80;99.90;;;;;;5011315;28;20188;-67
2022/05/18 07:57:13;;;;;;;4.60;3.88;;;29.80;99.90;;;;;;5011617;28;20607;-67
2022/05/18 07:59:39;;;;;;;2.60;2.50;;;29.90;99.90;;;;;;5011224;28;20169;-67
2022/05/18 08:02:04;;;;;;;3.40;3.20;;;29.90;99.90;;;;;;5011416;28;20196;-67
2022/05/18 08:04:30;;;;;;;2.75;2.65;;;30.00;99.90;;;;;;5010493;28;20195;-67
2022/05/18 08:06:56;;;;;;;2.75;2.65;;;30.10;99.90;;;;;;5011233;28;20210;-67
2022/05/18 08:09:22;;;;;;;2.90;2.70;;;30.50;99.90;;;;;;5010192;28;20176;-67
2022/05/18 08:17:17;;;;;;;2.80;2.63;;;30.80;99.90;;;;;;5011242;28;20179;-67
2022/05/18 08:19:44;;;;;;;2.60;2.50;;;30.90;99.90;;;;;;5011179;28;20203;-67
2022/05/18 08:22:10;;;;;;;3.63;3.33;;;31.20;99.90;;;;;;5011123;28;20206;-67
2022/05/18 08:24:36;;;;;;;2.92;2.83;;;31.20;99.90;;;;;;5011011;28;20196;-67
2022/05/18 08:27:04;;;;;;;3.00;2.80;;;31.00;99.90;;;;;;5011145;28;20164;-67
2022/05/18 08:29:30;;;;;;;3.45;3.17;;;31.10;99.90;;;;;;5011368;28;20169;-67
2022/05/18 08:31:56;;;;;;;3.05;2.90;;;31.20;99.90;;;;;;5011121;28;20176;-67
2022/05/18 08:34:21;;;;;;;2.45;2.35;;;31.30;99.90;;;;;;5014524;28;20188;-67
2022/05/18 08:36:47;;;;;;;2.80;2.67;;;31.30;99.90;;;;;;5014361;28;20168;-67
2022/05/18 08:39:13;;;;;;;2.45;2.35;;;31.40;99.90;;;;;;5016065;28;20233;-67
2022/05/18 08:41:45;;;;;;;2.80;2.60;;;31.70;99.90;;;;;;5033912;28;20210;-67
2022/05/18 08:44:25;;;;;;;3.00;2.80;;;31.70;99.90;;;;;;5034086;28;20210;-67
2022/05/18 08:47:00;;;;;;;2.83;2.45;;;31.90;99.90;;;;;;5048113;28;20182;-67
2022/05/18 08:49:33;;;;;;;2.70;2.60;;;32.00;99.90;;;;;;5054219;28;20255;-67
2022/05/18 08:52:33;;;;;;;2.85;2.72;;;32.10;99.90;;;;;;5053971;28;20171;-66
2022/05/18 08:55:24;;;;;;;2.63;2.53;;;32.50;99.90;;;;;;5041707;28;20665;-67
2022/05/18 08:57:52;;;;;;;2.63;2.53;;;32.30;99.90;;;;;;5033824;28;20175;-67
2022/05/18 09:00:19;;;;;;;2.97;2.78;;;32.20;99.90;;;;;;5033631;28;20210;-67
2022/05/18 09:02:47;;;;;;;2.90;2.70;;;32.50;99.90;;;;;;5033858;28;21528;-67
2022/05/18 09:05:43;;;;;;;3.03;2.83;;;32.70;99.90;;;;;;5033691;28;20178;-67
2022/05/18 09:08:14;;;;;;;2.80;2.70;;;32.80;99.90;;;;;;5033579;28;20180;-67
2022/05/18 09:10:53;;;;;;;3.33;3.03;;;33.00;99.90;;;;;;5033953;28;20171;-67
2022/05/18 09:13:20;;;;;;;3.17;2.97;;;32.90;99.90;;;;;;5033298;28;20218;-67
2022/05/18 09:16:01;;;;;;;3.28;3.08;;;32.80;99.90;;;;;;5033360;28;20226;-67
2022/05/18 09:18:54;;;;;;;3.30;3.10;;;32.80;99.90;;;;;;5033335;28;20525;-67
2022/05/18 09:21:39;;;;;;;2.78;2.67;;;33.00;99.90;;;;;;5033660;28;20199;-67
2022/05/18 09:24:23;;;;;;;2.72;2.53;;;33.20;99.90;;;;;;5033134;28;20718;-67
2022/05/18 09:26:56;;;;;;;2.80;2.70;;;33.10;99.90;;;;;;5033279;28;20239;-67
2022/05/18 09:29:38;;;;;;;2.92;2.65;;;33.00;99.90;;;;;;5033512;28;20565;-67
2022/05/18 09:32:22;;;;;;;2.80;2.60;;;33.20;99.90;;;;;;5033580;28;20542;-67
2022/05/18 09:35:05;;;;;;;3.85;2.55;;;33.20;99.90;;;;;;5013200;28;20242;-67
2022/05/18 09:37:44;;;;;;;2.92;2.72;;;33.60;99.90;;;;;;5015569;28;20175;-67
2022/05/18 09:40:23;;;;;;;2.97;2.78;;;33.90;99.90;;;;;;5031843;28;20672;-67
2022/05/18 09:43:03;;;;;;;2.92;2.72;;;33.90;99.90;;;;;;5033519;28;20203;-66
2022/05/18 09:45:34;;;;;;;2.60;2.40;;;33.70;99.90;;;;;;5032943;28;20193;-67
2022/05/18 09:48:06;;;;;;;2.50;2.40;;;33.60;99.90;;;;;;5031510;28;20172;-67
2022/05/18 09:50:32;;;;;;;2.72;2.53;;;33.80;99.90;;;;;;5032939;28;20186;-67
2022/05/18 09:52:58;;;;;;;3.15;2.85;;;33.80;99.90;;;;;;5032619;28;20274;-67
2022/05/18 09:55:26;;;;;;;2.42;2.33;;;33.70;99.90;;;;;;5032593;28;20202;-67
2022/05/18 09:58:02;;;;;;;2.50;2.40;;;33.70;99.90;;;;;;5032502;28;20172;-66
2022/05/18 10:00:34;;;;;;;2.53;2.42;;;33.70;99.90;;;;;;5032767;28;20290;-67
2022/05/18 10:08:53;;;;;;;2.63;2.42;;;34.10;99.90;;;;;;5014586;28;20222;-67
2022/05/18 10:11:28;;;;;;;2.60;2.40;;;34.30;99.90;;;;;;5013571;28;20184;-68
2022/05/18 10:14:16;;;;;;;2.70;2.50;;;34.40;99.90;;;;;;5032452;28;20316;-67
2022/05/18 10:16:47;;;;;;;4.63;2.38;;;34.60;99.90;;;;;;5032331;28;20187;-68
2022/05/18 10:19:30;;;;;;;2.65;2.45;;;35.00;99.90;;;;;;5032798;28;20168;-68
2022/05/18 10:22:01;;;;;;;2.50;2.40;;;35.30;99.90;;;;;;5032064;28;20203;-68
2022/05/18 10:24:41;;;;;;;5.80;2.58;;;35.40;99.90;;;;;;5032232;28;20188;-67
2022/05/18 10:27:15;;;;;;;2.38;2.28;;;35.40;99.70;;;;;;5031964;28;20179;-68
2022/05/18 10:29:43;;;;;;;2.53;2.33;;;35.60;99.90;;;;;;5032385;28;20206;-69
2022/05/18 10:32:18;;;;;;;4.95;2.35;;;35.90;99.10;;;;;;5031968;28;20230;-67
2022/05/18 10:34:49;;;;;;;2.40;2.30;;;36.20;98.30;;;;;;5031994;28;20190;-69
2022/05/18 10:37:23;;;;;;;2.17;2.08;;;36.00;97.70;;;;;;5031737;28;20262;-67
2022/05/18 10:39:49;;;;;;;2.00;1.90;;;36.00;94.80;;;;;;5032187;28;20171;-67
2022/05/18 10:42:25;;;;;;;2.83;2.55;;;35.90;96.60;;;;;;5031870;28;20340;-67
2022/05/18 10:44:53;;;;;;;2.20;2.10;;;35.90;94.80;;;;;;5032175;28;20277;-67
2022/05/18 10:47:26;;;;;;;2.30;2.17;;;35.90;92.90;;;;;;5031746;28;20187;-67
2022/05/18 10:50:08;;;;;;;2.13;2.03;;;35.90;94.20;;;;;;5032012;28;20250;-67
2022/05/18 10:52:34;;;;;;;2.10;2.00;;;35.90;92.50;;;;;;5012301;28;20172;-67
2022/05/18 10:55:16;;;;;;;2.35;2.22;;;36.00;93.80;;;;;;5011541;28;20176;-67
2022/05/18 10:58:03;;;;;;;2.45;2.35;;;36.00;94.10;;;;;;5012200;28;20641;-67
2022/05/18 11:00:55;;;;;;;2.10;2.00;;;36.10;94.80;;;;;;5014970;28;20295;-66
2022/05/18 11:03:46;;;;;;;2.20;2.10;;;36.40;90.50;;;;;;5031607;28;20241;-68
2022/05/18 11:06:41;;;;;;;2.40;2.30;;;36.40;91.10;;;;;;5031296;28;20274;-67
2022/05/18 11:09:20;;;;;;;2.30;2.20;;;36.10;91.30;;;;;;5009674;28;20270;-68
2022/05/18 11:11:55;;;;;;;2.20;2.10;;;35.90;91.50;;;;;;5024463;28;20190;-68
2022/05/18 11:14:31;;;;;;;2.45;2.25;;;36.00;91.20;;;;;;5031180;28;20202;-67
2022/05/18 11:17:23;;;;;;;2.30;2.20;;;35.70;91.30;;;;;;5031539;28;20183;-67
2022/05/18 11:20:08;;;;;;;2.35;2.25;;;35.80;90.20;;;;;;5028807;28;20583;-66
2022/05/18 11:22:37;;;;;;;2.30;2.20;;;35.80;89.00;;;;;;5030181;28;20195;-67
2022/05/18 11:25:32;;;;;;;2.70;2.47;;;36.30;89.70;;;;;;5029696;28;20368;-66
2022/05/18 11:28:01;;;;;;;2.25;2.15;;;36.20;90.00;;;;;;5031084;28;20533;-67
2022/05/18 11:30:44;;;;;;;2.45;2.20;;;36.40;89.70;;;;;;5031140;28;20175;-67
2022/05/18 11:33:26;;;;;;;2.40;2.30;;;36.50;88.30;;;;;;5030976;28;20474;-68
2022/05/18 11:36:28;;;;;;;2.20;2.10;;;36.60;91.20;;;;;;5030459;28;20598;-66
2022/05/18 11:39:14;;;;;;;2.20;2.10;;;37.10;89.10;;;;;;5030907;28;20248;-67
2022/05/18 11:42:05;;;;;;;2.10;2.00;;;37.10;84.30;;;;;;5030830;28;20614;-68
2022/05/18 11:44:52;;;;;;;2.22;2.10;;;37.20;84.30;;;;;;5030351;28;20207;-67
2022/05/18 11:47:30;;;;;;;2.38;2.28;;;37.10;87.80;;;;;;5031045;28;20176;-67
2022/05/18 11:50:04;;;;;;;2.33;2.22;;;36.80;80.70;;;;;;5030535;28;20179;-67
2022/05/18 11:52:43;;;;;;;2.38;2.28;;;36.80;89.20;;;;;;5029788;28;20563;-68
2022/05/18 11:55:17;;;;;;;2.10;2.00;;;36.90;84.30;;;;;;5029271;28;20179;-66
2022/05/18 11:57:46;;;;;;;2.22;2.03;;;36.60;82.80;;;;;;5030922;28;20172;-66
2022/05/18 12:00:46;;;;;;;2.22;2.00;;;36.70;85.80;;;;;;5030866;28;20207;-67
2022/05/18 12:03:32;;;;;;;1.98;1.88;;;36.90;85.10;;;;;;5029688;28;20191;-66
2022/05/18 12:06:05;;;;;;;2.00;1.90;;;37.10;82.90;;;;;;5030510;28;20180;-67
2022/05/18 12:08:37;;;;;;;2.20;2.03;;;37.00;80.40;;;;;;5033384;28;20175;-66
2022/05/18 12:11:12;;;;;;;2.50;2.40;;;37.00;81.40;;;;;;5019468;28;20177;-67
2022/05/18 12:14:11;;;;;;;2.40;2.30;;;37.20;81.60;;;;;;5018484;28;20199;-67
2022/05/18 12:16:56;;;;;;;2.00;1.90;;;37.70;83.10;;;;;;5034139;28;20621;-68
2022/05/18 12:19:55;;;;;;;2.30;2.20;;;38.00;81.30;;;;;;5034716;28;20234;-68
2022/05/18 12:22:47;;;;;;;2.22;2.13;;;37.80;79.00;;;;;;5034816;28;20553;-68
2022/05/18 12:25:18;;;;;;;2.20;2.10;;;37.70;74.80;;;;;;5028410;28;20191;-68
2022/05/18 12:27:45;;;;;;;2.25;2.15;;;37.70;79.30;;;;;;5034725;28;20225;-68
2022/05/18 12:30:15;;;;;;;2.20;2.10;;;37.60;80.20;;;;;;5034492;28;20164;-68
2022/05/18 12:32:42;;;;;;;2.53;2.42;;;37.60;80.10;;;;;;5033317;28;20183;-68
2022/05/18 12:35:31;;;;;;;2.13;2.03;;;37.50;77.90;;;;;;5034103;28;20163;-68
2022/05/18 12:38:10;;;;;;;2.08;1.98;;;37.40;81.50;;;;;;5034382;28;20179;-68
2022/05/18 12:41:07;;;;;;;2.20;2.10;;;37.30;77.90;;;;;;5034399;28;20203;-68
2022/05/18 12:43:40;;;;;;;2.20;2.10;;;37.20;79.60;;;;;;5034341;28;20576;-68
2022/05/18 12:46:16;;;;;;;2.47;2.38;;;37.20;76.10;;;;;;5033952;28;20168;-68
2022/05/18 12:49:30;;;;;;;2.40;2.30;;;37.30;78.90;;;;;;5034685;28;20206;-68
2022/05/18 12:52:05;;;;;;;2.20;2.10;;;37.30;79.50;;;;;;4992349;28;20280;-67
2022/05/18 12:54:30;;;;;;;2.17;2.08;;;37.40;78.40;;;;;;4992153;28;20204;-67
2022/05/18 12:57:05;;;;;;;2.72;2.60;;;37.70;79.70;;;;;;5016235;28;20195;-68
2022/05/18 12:59:44;;;;;;;3.03;2.72;;;37.80;79.10;;;;;;5032568;28;20266;-68
2022/05/18 13:02:31;;;;;;;2.65;2.45;;;37.90;76.40;;;;;;5033439;28;20175;-67
2022/05/18 13:04:57;;;;;;;2.65;2.10;;;37.90;75.60;;;;;;5053619;28;20536;-68
2022/05/18 13:07:30;;;;;;;2.33;2.22;;;37.60;76.10;;;;;;5034520;28;20266;-67
2022/05/18 13:10:16;;;;;;;2.15;2.05;;;37.50;74.60;;;;;;5033752;28;20547;-68
2022/05/18 13:12:54;;;;;;;2.30;2.20;;;37.00;76.40;;;;;;5033725;28;20167;-68
2022/05/18 13:15:20;;;;;;;3.00;2.67;;;36.90;73.40;;;;;;5032296;28;20179;-68
2022/05/18 13:17:45;;;;;;;3.13;2.92;;;36.90;75.90;;;;;;5033234;28;20183;-68
2022/05/18 13:20:26;;;;;;;2.30;2.20;;;37.30;75.70;;;;;;5033181;28;20282;-68